createdAt,value
2022-12-26T00:00:48.512Z,61.42
2022-12-26T00:03:16.986Z,61.43
2022-12-26T00:05:43.469Z,61.55
2022-12-26T00:08:09.933Z,61.44
2022-12-26T00:10:36.408Z,61.19
2022-12-26T00:13:37.082Z,61.36
2022-12-26T00:15:50.267Z,61.30
2022-12-26T00:18:16.765Z,61.53
2022-12-26T00:23:28.997Z,61.45
2022-12-26T00:25:55.370Z,61.29
2022-12-26T00:28:21.735Z,61.23
2022-12-26T00:30:48.087Z,61.49
2022-12-26T00:33:14.465Z,61.21
2022-12-26T00:35:40.856Z,61.53
2022-12-26T00:38:07.877Z,61.51
2022-12-26T00:40:34.220Z,61.46
2022-12-26T00:43:00.574Z,61.49
2022-12-26T00:45:27.429Z,61.29
2022-12-26T00:47:53.825Z,61.53
2022-12-26T00:50:20.247Z,61.53
2022-12-26T00:52:46.851Z,61.60
2022-12-26T00:55:13.379Z,61.70
2022-12-26T00:57:39.808Z,61.44
2022-12-26T01:00:06.758Z,61.45
2022-12-26T01:02:33.587Z,61.59
2022-12-26T01:05:00.378Z,61.63
2022-12-26T01:07:27.437Z,61.67
2022-12-26T01:09:53.893Z,61.53
2022-12-26T01:12:20.546Z,61.54
2022-12-26T01:14:47.337Z,61.61
2022-12-26T01:17:13.670Z,61.61
2022-12-26T01:19:39.989Z,61.58
2022-12-26T01:22:06.482Z,61.59
2022-12-26T01:24:34.001Z,61.55
2022-12-26T01:27:01.047Z,61.57
2022-12-26T01:29:27.354Z,61.34
2022-12-26T01:31:53.937Z,61.57
2022-12-26T01:34:20.560Z,61.66
2022-12-26T01:36:47.075Z,61.64
2022-12-26T01:39:13.387Z,61.57
2022-12-26T01:41:39.707Z,61.45
2022-12-26T01:44:06.247Z,61.68
2022-12-26T01:46:32.626Z,61.41
2022-12-26T01:48:59.682Z,61.50
2022-12-26T01:51:25.994Z,61.48
2022-12-26T01:53:52.539Z,61.66
2022-12-26T01:56:19.107Z,61.61
2022-12-26T01:58:45.411Z,61.48
2022-12-26T02:01:12.230Z,61.69
2022-12-26T02:03:39.349Z,61.58
2022-12-26T02:06:06.168Z,61.48
2022-12-26T02:08:33.544Z,61.42
2022-12-26T02:11:01.619Z,61.60
2022-12-26T02:13:28.135Z,61.51
2022-12-26T02:15:55.015Z,61.45
2022-12-26T02:18:22.489Z,61.51
2022-12-26T02:20:48.962Z,61.65
2022-12-26T02:23:16.618Z,61.40
2022-12-26T02:25:43.112Z,61.37
2022-12-26T02:28:09.873Z,61.47
2022-12-26T02:30:36.818Z,61.69
2022-12-26T02:33:03.143Z,61.54
2022-12-26T02:35:32.136Z,61.42
2022-12-26T02:37:58.483Z,61.48
2022-12-26T02:40:25.093Z,61.52
2022-12-26T02:42:51.751Z,61.42
2022-12-26T02:45:18.148Z,61.67
2022-12-26T02:47:46.685Z,61.67
2022-12-26T02:50:13.484Z,61.58
2022-12-26T02:52:39.795Z,61.59
2022-12-26T02:55:06.164Z,61.90
2022-12-26T02:57:32.808Z,61.85
2022-12-26T02:59:59.538Z,61.58
2022-12-26T03:02:25.972Z,61.68
2022-12-26T03:04:52.491Z,61.64
2022-12-26T03:07:18.998Z,61.67
2022-12-26T03:09:45.467Z,61.69
2022-12-26T03:12:11.784Z,61.39
2022-12-26T03:14:38.530Z,61.69
2022-12-26T03:17:05.493Z,61.52
2022-12-26T03:19:31.975Z,61.77
2022-12-26T03:21:58.550Z,61.56
2022-12-26T03:24:25.760Z,61.69
2022-12-26T03:26:52.211Z,61.56
2022-12-26T03:29:19.184Z,61.58
2022-12-26T03:31:46.065Z,61.67
2022-12-26T03:34:12.668Z,61.75
2022-12-26T03:36:39.014Z,61.71
2022-12-26T03:39:05.609Z,61.69
2022-12-26T03:41:32.122Z,61.84
2022-12-26T03:43:58.875Z,61.54
2022-12-26T03:46:25.721Z,61.64
2022-12-26T03:48:52.255Z,61.65
2022-12-26T03:51:19.178Z,61.75
2022-12-26T03:53:45.832Z,61.79
2022-12-26T03:56:12.338Z,61.82
2022-12-26T03:58:39.278Z,61.79
2022-12-26T04:01:06.105Z,61.66
2022-12-26T04:03:33.147Z,61.68
2022-12-26T04:06:00.459Z,61.66
2022-12-26T04:08:27.524Z,61.67
2022-12-26T04:10:54.375Z,61.82
2022-12-26T04:16:05.272Z,61.59
2022-12-26T04:18:32.413Z,61.73
2022-12-26T04:20:58.713Z,61.73
2022-12-26T04:23:25.381Z,61.81
2022-12-26T04:25:52.484Z,61.56
2022-12-26T04:28:18.807Z,61.81
2022-12-26T04:30:45.657Z,61.71
2022-12-26T04:33:12.072Z,61.71
2022-12-26T04:35:38.537Z,61.70
2022-12-26T04:38:05.778Z,61.69
2022-12-26T04:40:32.253Z,61.88
2022-12-26T04:42:59.163Z,61.79
2022-12-26T04:45:25.927Z,61.84
2022-12-26T04:47:52.257Z,61.80
2022-12-26T04:50:18.631Z,61.76
2022-12-26T04:52:45.035Z,61.83
2022-12-26T04:55:11.596Z,61.76
2022-12-26T04:57:37.923Z,61.92
2022-12-26T05:00:04.644Z,61.59
2022-12-26T05:02:33.383Z,61.83
2022-12-26T05:04:59.833Z,61.54
2022-12-26T05:07:26.268Z,61.83
2022-12-26T05:09:53.292Z,61.61
2022-12-26T05:12:19.928Z,61.70
2022-12-26T05:14:46.345Z,61.89
2022-12-26T05:17:13.422Z,61.68
2022-12-26T05:19:39.736Z,61.72
2022-12-26T05:22:06.358Z,61.71
2022-12-26T05:24:32.868Z,61.68
2022-12-26T05:26:59.552Z,61.82
2022-12-26T05:29:26.479Z,61.65
2022-12-26T05:31:53.247Z,61.82
2022-12-26T05:34:19.573Z,61.70
2022-12-26T05:36:45.843Z,61.85
2022-12-26T05:39:12.476Z,61.90
2022-12-26T05:41:39.437Z,61.55
2022-12-26T05:44:06.205Z,61.60
2022-12-26T05:46:33.213Z,61.86
2022-12-26T05:48:59.803Z,61.66
2022-12-26T05:51:27.300Z,61.98
2022-12-26T05:53:53.626Z,61.62
2022-12-26T05:56:20.049Z,61.62
2022-12-26T05:58:46.450Z,61.82
2022-12-26T06:01:13.188Z,61.99
2022-12-26T06:03:39.779Z,61.76
2022-12-26T06:06:06.339Z,61.88
2022-12-26T06:08:33.111Z,61.62
2022-12-26T06:10:59.976Z,61.71
2022-12-26T06:13:26.415Z,61.75
2022-12-26T06:15:56.172Z,61.74
2022-12-26T06:18:22.570Z,62.16
2022-12-26T06:20:49.817Z,61.76
2022-12-26T06:23:16.136Z,61.94
2022-12-26T06:25:42.879Z,61.70
2022-12-26T06:28:09.286Z,61.77
2022-12-26T06:30:36.038Z,61.70
2022-12-26T06:33:05.997Z,61.66
2022-12-26T06:35:33.002Z,61.84
2022-12-26T06:37:59.396Z,61.79
2022-12-26T06:40:28.395Z,61.72
2022-12-26T06:42:55.245Z,61.95
2022-12-26T06:45:22.493Z,61.94
2022-12-26T06:47:48.823Z,61.95
2022-12-26T06:50:15.652Z,61.75
2022-12-26T06:52:41.968Z,61.81
2022-12-26T06:55:08.602Z,61.72
2022-12-26T06:57:35.583Z,62.01
2022-12-26T07:00:02.175Z,62.00
2022-12-26T07:02:28.980Z,61.73
2022-12-26T07:04:55.634Z,61.84
2022-12-26T07:07:22.003Z,62.02
2022-12-26T07:09:48.721Z,61.57
2022-12-26T07:12:15.281Z,61.99
2022-12-26T07:14:41.765Z,61.81
2022-12-26T07:17:09.228Z,61.90
2022-12-26T07:19:36.367Z,61.93
2022-12-26T07:22:02.999Z,62.15
2022-12-26T07:24:29.407Z,62.00
2022-12-26T07:26:56.061Z,61.97
2022-12-26T07:29:22.415Z,62.10
2022-12-26T07:31:48.936Z,61.98
2022-12-26T07:34:15.383Z,61.98
2022-12-26T07:36:42.102Z,62.08
2022-12-26T07:39:08.765Z,62.13
2022-12-26T07:41:35.917Z,62.09
2022-12-26T07:44:03.761Z,61.94
2022-12-26T07:46:30.496Z,61.90
2022-12-26T07:48:56.974Z,61.85
2022-12-26T07:51:23.806Z,61.91
2022-12-26T07:56:34.561Z,61.84
2022-12-26T07:59:01.025Z,62.00
2022-12-26T08:01:27.865Z,61.74
2022-12-26T08:03:54.387Z,62.01
2022-12-26T08:06:20.716Z,61.90
2022-12-26T08:08:51.113Z,61.90
2022-12-26T08:11:17.855Z,61.87
2022-12-26T08:13:44.265Z,62.13
2022-12-26T08:16:11.002Z,62.10
2022-12-26T08:18:37.810Z,62.06
2022-12-26T08:21:04.286Z,61.88
2022-12-26T08:23:31.068Z,61.91
2022-12-26T08:25:57.402Z,61.97
2022-12-26T08:28:23.898Z,62.08
2022-12-26T08:30:50.413Z,61.87
2022-12-26T08:33:16.748Z,62.05
2022-12-26T08:35:43.734Z,61.93
2022-12-26T08:38:10.113Z,62.07
2022-12-26T08:40:45.002Z,61.91
2022-12-26T08:43:30.257Z,61.99
2022-12-26T08:45:58.325Z,62.11
2022-12-26T08:48:24.695Z,61.95
2022-12-26T08:50:51.118Z,61.93
2022-12-26T08:53:17.969Z,62.07
2022-12-26T08:55:44.637Z,62.17
2022-12-26T08:58:11.217Z,62.02
2022-12-26T09:00:38.343Z,62.22
2022-12-26T09:03:05.256Z,62.16
2022-12-26T09:05:31.660Z,62.41
2022-12-26T09:07:58.052Z,62.16
2022-12-26T09:10:24.590Z,62.29
2022-12-26T09:12:51.909Z,62.20
2022-12-26T09:15:18.287Z,62.29
2022-12-26T09:17:44.633Z,62.24
2022-12-26T09:20:11.768Z,62.43
2022-12-26T09:22:38.486Z,62.40
2022-12-26T09:25:05.250Z,62.45
2022-12-26T09:27:31.784Z,62.44
2022-12-26T09:29:58.112Z,62.41
2022-12-26T09:32:24.960Z,62.49
2022-12-26T09:34:53.689Z,62.08
2022-12-26T09:37:22.493Z,62.48
2022-12-26T09:39:48.836Z,62.49
2022-12-26T09:42:15.234Z,62.50
2022-12-26T09:44:41.534Z,62.53
2022-12-26T09:47:08.242Z,62.62
2022-12-26T09:49:34.748Z,62.26
2022-12-26T09:52:01.538Z,62.49
2022-12-26T09:54:28.476Z,62.62
2022-12-26T09:57:03.428Z,62.53
2022-12-26T09:59:31.467Z,62.38
2022-12-26T10:01:58.006Z,62.57
2022-12-26T10:04:29.054Z,62.75
2022-12-26T10:06:56.651Z,62.63
2022-12-26T10:09:23.693Z,62.40
2022-12-26T10:11:50.684Z,62.51
2022-12-26T10:14:21.644Z,62.57
2022-12-26T10:16:48.458Z,62.62
2022-12-26T10:19:14.889Z,62.62
2022-12-26T10:21:41.357Z,62.60
2022-12-26T10:24:07.944Z,62.57
2022-12-26T10:26:34.750Z,62.54
2022-12-26T10:29:01.802Z,62.77
2022-12-26T10:31:28.408Z,62.44
2022-12-26T10:33:55.087Z,62.82
2022-12-26T10:36:21.645Z,62.70
2022-12-26T10:38:48.537Z,62.66
2022-12-26T10:41:15.237Z,62.63
2022-12-26T10:43:41.597Z,62.89
2022-12-26T10:46:07.940Z,62.75
2022-12-26T10:48:34.704Z,62.71
2022-12-26T10:51:01.598Z,62.96
2022-12-26T10:53:27.920Z,62.77
2022-12-26T10:55:54.447Z,62.86
2022-12-26T10:58:20.930Z,62.92
2022-12-26T11:00:47.400Z,62.84
2022-12-26T11:03:14.119Z,62.75
2022-12-26T11:06:06.482Z,62.82
2022-12-26T11:08:27.627Z,62.97
2022-12-26T11:10:54.314Z,63.04
2022-12-26T11:13:20.669Z,63.10
2022-12-26T11:15:47.442Z,63.14
2022-12-26T11:18:15.875Z,63.03
2022-12-26T11:20:42.627Z,63.04
2022-12-26T11:23:09.354Z,63.24
2022-12-26T11:25:36.003Z,63.18
2022-12-26T11:28:02.648Z,63.16
2022-12-26T11:30:29.189Z,62.99
2022-12-26T11:32:56.106Z,63.02
2022-12-26T11:35:22.815Z,63.13
2022-12-26T11:37:50.015Z,63.15
2022-12-26T11:40:16.576Z,63.20
2022-12-26T11:42:43.007Z,62.93
2022-12-26T11:45:09.390Z,63.04
2022-12-26T11:47:36.362Z,63.02
2022-12-26T11:50:02.709Z,63.24
2022-12-26T11:52:29.735Z,63.13
2022-12-26T11:54:56.186Z,63.26
2022-12-26T11:57:23.014Z,63.22
2022-12-26T11:59:49.287Z,63.13
2022-12-26T12:02:15.797Z,62.90
2022-12-26T12:04:42.173Z,63.14
2022-12-26T12:07:08.911Z,63.15
2022-12-26T12:09:35.677Z,63.13
2022-12-26T12:12:02.900Z,63.17
2022-12-26T12:14:29.278Z,63.05
2022-12-26T12:16:56.007Z,63.04
2022-12-26T12:19:23.283Z,63.01
2022-12-26T12:21:49.731Z,63.00
2022-12-26T12:24:16.607Z,62.98
2022-12-26T12:26:43.154Z,63.05
2022-12-26T12:29:09.582Z,62.96
2022-12-26T12:31:36.474Z,63.16
2022-12-26T12:34:03.874Z,63.12
2022-12-26T12:36:30.222Z,63.13
2022-12-26T12:38:56.902Z,63.19
2022-12-26T12:41:23.794Z,63.07
2022-12-26T12:43:50.443Z,63.24
2022-12-26T12:46:17.336Z,63.18
2022-12-26T12:48:45.116Z,63.30
2022-12-26T12:51:11.992Z,63.67
2022-12-26T12:53:38.860Z,65.24
2022-12-26T12:56:05.732Z,67.31
2022-12-26T12:58:32.482Z,66.97
2022-12-26T13:00:59.605Z,67.40
2022-12-26T13:03:26.344Z,67.51
2022-12-26T13:05:52.752Z,67.71
2022-12-26T13:08:19.497Z,67.73
2022-12-26T13:10:46.675Z,67.80
2022-12-26T13:13:13.586Z,68.28
2022-12-26T13:15:40.068Z,67.72
2022-12-26T13:18:07.259Z,68.75
2022-12-26T13:20:34.165Z,68.98
2022-12-26T13:23:01.289Z,69.02
2022-12-26T13:25:27.967Z,69.29
2022-12-26T13:27:54.419Z,69.30
2022-12-26T13:30:20.800Z,69.66
2022-12-26T13:32:48.180Z,69.52
2022-12-26T13:38:00.711Z,69.93
2022-12-26T13:40:28.052Z,70.04
2022-12-26T13:42:54.523Z,69.99
2022-12-26T13:45:20.909Z,70.39
2022-12-26T13:47:49.953Z,70.15
2022-12-26T13:50:16.894Z,70.41
2022-12-26T13:52:43.257Z,70.20
2022-12-26T13:55:09.879Z,70.46
2022-12-26T13:57:36.839Z,70.54
2022-12-26T14:00:03.925Z,70.51
2022-12-26T14:02:58.693Z,70.87
2022-12-26T14:05:19.740Z,70.72
2022-12-26T14:07:47.286Z,70.98
2022-12-26T14:13:02.517Z,70.66
2022-12-26T14:15:28.938Z,70.72
2022-12-26T14:17:56.251Z,70.58
2022-12-26T14:20:22.879Z,70.72
2022-12-26T14:22:49.766Z,70.68
2022-12-26T14:25:17.466Z,70.54
2022-12-26T14:27:43.979Z,70.23
2022-12-26T14:32:57.246Z,70.01
2022-12-26T14:35:24.203Z,69.92
2022-12-26T14:37:51.315Z,69.70
2022-12-26T14:40:18.036Z,69.89
2022-12-26T14:42:44.553Z,69.82
2022-12-26T14:45:11.258Z,69.62
2022-12-26T14:47:38.043Z,69.37
2022-12-26T14:50:04.835Z,69.62
2022-12-26T14:52:34.520Z,69.47
2022-12-26T14:55:03.855Z,69.09
2022-12-26T14:57:32.270Z,68.88
2022-12-26T15:00:03.427Z,68.80
2022-12-26T15:02:30.933Z,68.68
2022-12-26T15:04:57.848Z,68.71
2022-12-26T15:07:24.431Z,68.67
2022-12-26T15:09:50.980Z,68.38
2022-12-26T15:12:17.776Z,68.02
2022-12-26T15:14:44.754Z,68.42
2022-12-26T15:17:11.467Z,68.18
2022-12-26T15:19:38.025Z,68.46
2022-12-26T15:22:05.282Z,68.46
2022-12-26T15:25:16.519Z,68.28
2022-12-26T15:27:19.099Z,68.36
2022-12-26T15:29:46.042Z,68.43
2022-12-26T15:32:13.180Z,68.34
2022-12-26T15:34:39.916Z,68.26
2022-12-26T15:37:07.497Z,68.13
2022-12-26T15:39:34.179Z,68.07
2022-12-26T15:42:01.168Z,68.27
2022-12-26T15:44:28.029Z,68.42
2022-12-26T15:46:54.536Z,68.55
2022-12-26T15:49:21.431Z,68.52
2022-12-26T15:51:55.413Z,68.67
2022-12-26T15:54:23.674Z,68.90
2022-12-26T15:56:50.495Z,69.23
2022-12-26T15:59:17.836Z,69.13
2022-12-26T16:01:44.518Z,69.11
2022-12-26T16:04:11.471Z,69.04
2022-12-26T16:06:38.596Z,68.73
2022-12-26T16:09:05.191Z,68.99
2022-12-26T16:11:32.436Z,69.05
2022-12-26T16:13:59.377Z,69.00
2022-12-26T16:16:26.409Z,69.28
2022-12-26T16:18:53.325Z,69.10
2022-12-26T16:24:07.681Z,69.20
2022-12-26T16:26:34.235Z,69.58
2022-12-26T16:29:00.732Z,69.27
2022-12-26T16:37:03.170Z,68.95
2022-12-26T16:39:30.039Z,68.74
2022-12-26T16:41:56.456Z,68.79
2022-12-26T16:44:28.319Z,68.59
2022-12-26T16:46:57.457Z,68.57
2022-12-26T16:49:23.874Z,68.34
2022-12-26T16:51:50.249Z,68.23
2022-12-26T16:54:17.600Z,67.92
2022-12-26T16:56:44.322Z,67.74
2022-12-26T16:59:15.467Z,67.79
2022-12-26T17:01:43.930Z,67.83
2022-12-26T17:04:10.545Z,67.43
2022-12-26T17:06:36.957Z,67.48
2022-12-26T17:09:03.397Z,67.26
2022-12-26T17:11:30.104Z,67.34
2022-12-26T17:13:56.928Z,67.13
2022-12-26T17:16:23.258Z,67.29
2022-12-26T17:18:49.745Z,66.99
2022-12-26T17:21:16.424Z,67.07
2022-12-26T17:23:43.981Z,67.15
2022-12-26T17:26:10.276Z,66.86
2022-12-26T17:28:37.492Z,66.77
2022-12-26T17:31:04.432Z,66.63
2022-12-26T17:33:31.034Z,66.71
2022-12-26T17:38:44.054Z,66.47
2022-12-26T17:41:12.395Z,66.52
2022-12-26T17:43:39.156Z,66.39
2022-12-26T17:46:06.691Z,66.07
2022-12-26T17:48:33.108Z,66.19
2022-12-26T17:51:00.101Z,65.82
2022-12-26T17:53:26.505Z,66.02
2022-12-26T17:55:53.361Z,65.93
2022-12-26T18:01:12.726Z,65.73
2022-12-26T18:03:41.004Z,65.70
2022-12-26T18:06:07.567Z,65.61
2022-12-26T18:08:34.441Z,65.39
2022-12-26T18:11:01.027Z,65.39
2022-12-26T18:16:03.747Z,65.54
2022-12-26T18:18:30.623Z,65.36
2022-12-26T18:20:57.022Z,65.54
2022-12-26T18:23:24.017Z,65.50
2022-12-26T18:25:54.336Z,65.25
2022-12-26T18:28:21.223Z,65.19
2022-12-26T18:30:47.923Z,65.31
2022-12-26T18:33:14.760Z,65.22
2022-12-26T18:35:41.365Z,65.36
2022-12-26T18:38:08.461Z,64.96
2022-12-26T18:40:34.861Z,64.98
2022-12-26T18:43:01.649Z,65.13
2022-12-26T18:45:28.123Z,65.04
2022-12-26T18:47:54.963Z,65.10
2022-12-26T18:50:21.760Z,64.94
2022-12-26T18:52:53.343Z,65.06
2022-12-26T18:55:20.198Z,65.07
2022-12-26T18:57:46.588Z,64.93
2022-12-26T19:00:13.228Z,64.79
2022-12-26T19:02:40.137Z,64.87
2022-12-26T19:05:07.807Z,64.86
2022-12-26T19:07:34.823Z,64.76
2022-12-26T19:10:01.452Z,64.93
2022-12-26T19:12:28.553Z,65.03
2022-12-26T19:14:54.937Z,64.77
2022-12-26T19:17:21.315Z,65.03
2022-12-26T19:19:47.755Z,65.12
2022-12-26T19:22:14.070Z,64.84
2022-12-26T19:24:40.425Z,65.28
2022-12-26T19:27:07.641Z,65.24
2022-12-26T19:29:34.620Z,64.96
2022-12-26T19:32:01.061Z,65.12
2022-12-26T19:34:27.712Z,65.28
2022-12-26T19:36:54.646Z,65.31
2022-12-26T19:39:21.388Z,65.13
2022-12-26T19:41:47.674Z,65.10
2022-12-26T19:44:14.393Z,65.22
2022-12-26T19:46:40.729Z,65.22
2022-12-26T19:49:07.676Z,65.66
2022-12-26T19:51:34.048Z,65.34
2022-12-26T19:54:00.419Z,65.26
2022-12-26T19:56:26.736Z,65.38
2022-12-26T19:58:56.773Z,65.22
2022-12-26T20:01:23.927Z,65.45
2022-12-26T20:03:50.678Z,65.18
2022-12-26T20:06:17.503Z,65.41
2022-12-26T20:08:44.728Z,65.47
2022-12-26T20:11:11.134Z,65.42
2022-12-26T20:13:37.498Z,65.37
2022-12-26T20:18:45.787Z,65.26
2022-12-26T20:21:13.124Z,65.03
2022-12-26T20:23:39.472Z,64.98
2022-12-26T20:26:05.754Z,65.01
2022-12-26T20:28:32.166Z,65.19
2022-12-26T20:30:58.596Z,65.13
2022-12-26T20:33:26.087Z,64.94
2022-12-26T20:35:52.507Z,64.94
2022-12-26T20:38:19.246Z,65.24
2022-12-26T20:40:50.083Z,65.08
2022-12-26T20:43:16.870Z,65.07
2022-12-26T20:45:43.314Z,65.17
2022-12-26T20:48:09.886Z,64.98
2022-12-26T20:50:36.217Z,64.99
2022-12-26T20:53:02.534Z,65.21
2022-12-26T20:55:28.983Z,65.22
2022-12-26T20:57:55.337Z,65.15
2022-12-26T21:00:21.622Z,65.23
2022-12-26T21:02:48.116Z,64.96
2022-12-26T21:05:14.575Z,65.20
2022-12-26T21:07:41.339Z,65.04
2022-12-26T21:10:07.735Z,64.96
2022-12-26T21:12:34.135Z,65.06
2022-12-26T21:15:00.644Z,64.97
2022-12-26T21:17:27.323Z,65.19
2022-12-26T21:19:53.977Z,64.88
2022-12-26T21:22:20.408Z,65.00
2022-12-26T21:24:47.044Z,65.01
2022-12-26T21:27:13.313Z,64.68
2022-12-26T21:29:39.837Z,64.89
2022-12-26T21:32:06.196Z,64.99
2022-12-26T21:34:32.489Z,64.89
2022-12-26T21:36:58.819Z,64.75
2022-12-26T21:39:25.389Z,64.79
2022-12-26T21:41:51.780Z,64.94
2022-12-26T21:44:18.087Z,64.69
2022-12-26T21:46:44.532Z,64.83
2022-12-26T21:49:11.248Z,64.98
2022-12-26T21:51:37.911Z,64.68
2022-12-26T21:54:04.379Z,64.99
2022-12-26T21:56:30.843Z,64.88
2022-12-26T21:58:57.253Z,64.81
2022-12-26T22:01:23.756Z,64.56
2022-12-26T22:03:50.146Z,64.79
2022-12-26T22:06:16.465Z,64.97
2022-12-26T22:08:43.091Z,64.64
2022-12-26T22:11:09.467Z,64.67
2022-12-26T22:13:36.011Z,64.71
2022-12-26T22:16:02.396Z,64.91
2022-12-26T22:18:29.227Z,64.72
2022-12-26T22:20:55.590Z,64.62
2022-12-26T22:23:21.891Z,64.66
2022-12-26T22:25:48.181Z,64.85
2022-12-26T22:28:20.159Z,64.77
2022-12-26T22:30:49.487Z,64.69
2022-12-26T22:33:15.898Z,64.82
2022-12-26T22:35:42.264Z,64.64
2022-12-26T22:38:08.883Z,64.73
2022-12-26T22:40:35.486Z,64.52
2022-12-26T22:43:02.470Z,64.63
2022-12-26T22:45:28.857Z,64.73
2022-12-26T22:47:55.296Z,64.56
2022-12-26T22:50:21.840Z,64.64
2022-12-26T22:52:48.780Z,64.41
2022-12-26T22:55:15.240Z,64.66
2022-12-26T22:57:41.664Z,64.62
2022-12-26T23:00:09.685Z,64.66
2022-12-26T23:02:37.205Z,64.62
2022-12-26T23:05:04.261Z,64.64
2022-12-26T23:07:31.605Z,64.39
2022-12-26T23:09:57.932Z,64.55
2022-12-26T23:12:24.334Z,64.57
2022-12-26T23:14:50.698Z,64.57
2022-12-26T23:17:17.841Z,64.57
2022-12-26T23:19:44.319Z,64.59
2022-12-26T23:22:11.110Z,64.25
2022-12-26T23:24:37.842Z,64.45
2022-12-26T23:27:11.692Z,64.35
2022-12-26T23:29:38.193Z,64.40
2022-12-26T23:32:04.926Z,64.58
2022-12-26T23:34:31.727Z,64.18
2022-12-26T23:36:58.585Z,64.45
2022-12-26T23:39:25.283Z,64.24
2022-12-26T23:41:51.746Z,64.42
2022-12-26T23:44:18.288Z,64.44
2022-12-26T23:46:44.640Z,64.50
2022-12-26T23:49:11.367Z,64.21
2022-12-26T23:51:38.327Z,64.48
2022-12-26T23:54:05.137Z,64.32
2022-12-26T23:56:31.583Z,64.19
2022-12-26T23:58:57.930Z,64.34
